Warning: Javascript must be enabled to use all the features on this page!


Page Loading - Please Wait...

Click to hideNews Bulletins

Peak Streamflow for the Nation

USGS 11261100 SALT SLOUGH A HWY 165 NR STEVINSON CA

Merced County, California
Hydrologic Unit Code 18040001
Latitude  37°14'52", Longitude 120°51'04" NAD27
Gage datum 75.11 feet above NGVD29
Output formats
Table
Graph
Tab-separated file
peakfq (watstore) format
Reselect output format
Water
Year
Date Gage
Height
(feet)
Stream-
flow
(cfs)
1986 1986-02-02   8101,2,C
1987 1986-11-09   7621,C
1988 1988-03-02 67.88 528C
1989 1989-08-01 67.79 506C
1990 1989-11-03 67.41 417C
1991 1991-03-22 67.59 459C
1992 1992-03-25 67.83 422C
1993 1993-03-29 68.51 434C
1994 1994-02-22 68.00 518C
1996 1996-03-07 69.28 701C
1997 1997-01-28 72.30 677C
1998 1998-02-17 71.252 771C
1999 1999-02-25 68.27 542C
2000 2000-02-16 68.301,2 508C
2001 2001-03-08 69.02 728C
2002 2002-03-20 67.46 367C
2003 2003-03-17 68.40 499C
2004 2004-02-29 69.08 552C
2005 2005-02-21 70.13 650C
2006 2006-01-05 69.492 581C
2007 2007-03-18 67.38 302C
2008 2008-01-30 67.37 302C
2009 2009-03-21 66.85 208C
2010 2010-03-02 68.67 402C
2011 2011-03-01 69.052 487C
2012 2012-03-20 67.48 272C
2013 2013-02-27 67.94 319C
2014 2014-04-09 66.53 167C
2015 2014-12-17 67.13 221C
2016 2016-03-09 69.10 250C
2017 2017-01-12 70.302 243C
2018 2018-03-25 69.08 283C
2019 2019-02-19 69.472 321C
?
  Peak Gage-Height Qualification Codes.
?
  Peak Streamflow Qualification Codes.